Time;durP1;ratioP1;P1;durP2;ratioP2;P2;SDS_P1;SDS_P2;PMS_P1;PMS_P2;Temp;Humidity;BMP_temperature;BMP_pressure;BME280_temperature;BME280_humidity;BME280_pressure;Samples;Min_cycle;Max_cycle;Signal;HPM_P1;HPM_P2
2021/07/16 00:01:52;;;;;;;39.17;27.33;;;;;;;20.93;100.00;100657.88;5149823;28;20121;-79
2021/07/16 00:04:23;;;;;;;45.53;30.20;;;;;;;20.75;100.00;100661.88;5149869;28;20290;-79
2021/07/16 00:06:53;;;;;;;44.50;28.10;;;;;;;20.84;100.00;100661.22;5145569;28;20528;-79
2021/07/16 00:09:23;;;;;;;40.70;28.73;;;;;;;20.70;100.00;100664.06;5145832;28;20428;-79
2021/07/16 00:11:54;;;;;;;41.57;27.23;;;;;;;20.75;100.00;100660.06;5146143;28;20301;-79
2021/07/16 00:14:24;;;;;;;39.40;27.13;;;;;;;20.73;100.00;100663.81;5144005;28;20321;-79
2021/07/16 00:16:54;;;;;;;40.17;25.85;;;;;;;20.84;100.00;100650.56;5144402;28;20146;-79
2021/07/16 00:19:24;;;;;;;34.92;25.23;;;;;;;20.85;100.00;100657.59;5146558;28;20030;-79
2021/07/16 00:21:55;;;;;;;37.90;24.85;;;;;;;20.82;100.00;100658.66;5151296;28;20041;-79
2021/07/16 00:24:25;;;;;;;31.85;22.88;;;;;;;20.71;100.00;100661.25;5148087;28;20377;-79
2021/07/16 00:26:55;;;;;;;30.60;22.63;;;;;;;20.68;100.00;100663.28;5146694;28;20037;-79
2021/07/16 00:29:28;;;;;;;31.67;22.47;;;;;;;20.78;100.00;100661.66;5144106;28;20030;-79
2021/07/16 00:31:58;;;;;;;34.20;23.98;;;;;;;20.72;100.00;100664.78;5145325;28;20361;-79
2021/07/16 00:34:29;;;;;;;34.08;23.65;;;;;;;20.74;100.00;100666.34;5145110;28;20027;-79
2021/07/16 00:36:59;;;;;;;31.95;22.23;;;;;;;20.67;100.00;100673.09;5144251;28;20027;-79
2021/07/16 00:39:30;;;;;;;32.95;23.75;;;;;;;20.62;100.00;100662.94;5145180;28;20081;-79
2021/07/16 00:42:01;;;;;;;35.55;23.77;;;;;;;20.61;100.00;100677.19;5146012;28;20069;-79
2021/07/16 00:44:36;;;;;;;34.55;21.88;;;;;;;20.72;100.00;100678.06;5146234;28;20030;-79
2021/07/16 00:47:07;;;;;;;34.90;22.77;;;;;;;20.77;100.00;100681.22;5147642;28;20023;-79
2021/07/16 00:49:38;;;;;;;34.88;21.42;;;;;;;20.66;100.00;100694.44;5148687;28;20497;-79
2021/07/16 00:52:08;;;;;;;33.20;20.92;;;;;;;20.67;100.00;100695.31;5148016;28;20117;-79
2021/07/16 00:54:38;;;;;;;36.63;20.42;;;;;;;20.66;100.00;100690.97;5141997;28;20026;-79
2021/07/16 00:57:09;;;;;;;29.40;20.05;;;;;;;20.52;100.00;100693.78;5154763;28;20853;-79
2021/07/16 00:59:39;;;;;;;28.95;20.00;;;;;;;20.54;100.00;100699.84;5149786;28;20035;-79
2021/07/16 01:02:12;;;;;;;29.20;18.92;;;;;;;20.53;100.00;100696.34;5152406;28;20035;-79
2021/07/16 01:04:42;;;;;;;27.38;18.00;;;;;;;20.72;100.00;100704.63;5155888;28;20037;-79
2021/07/16 01:07:12;;;;;;;30.17;18.40;;;;;;;20.52;100.00;100694.66;5151019;28;20022;-79
2021/07/16 01:09:43;;;;;;;34.63;20.27;;;;;;;20.57;100.00;100695.16;5150544;28;20672;-79
2021/07/16 01:12:13;;;;;;;31.23;19.10;;;;;;;20.53;100.00;100699.00;5156192;28;20023;-79
2021/07/16 01:14:43;;;;;;;26.27;18.88;;;;;;;20.58;100.00;100702.16;5149313;28;20042;-79
2021/07/16 01:17:14;;;;;;;30.23;18.73;;;;;;;20.76;100.00;100700.78;5153977;28;20027;-79
2021/07/16 01:19:57;;;;;;;28.92;19.27;;;;;;;20.66;100.00;100704.25;5155989;28;20031;-79
2021/07/16 01:22:31;;;;;;;34.00;19.50;;;;;;;20.56;100.00;100698.78;5148520;28;20019;-78
2021/07/16 01:25:06;;;;;;;35.58;20.17;;;;;;;20.62;100.00;100703.63;5148600;28;20027;-79
2021/07/16 01:27:38;;;;;;;33.13;19.80;;;;;;;20.70;100.00;100701.25;5149697;28;20073;-79
2021/07/16 01:30:11;;;;;;;31.75;18.50;;;;;;;20.62;100.00;100702.78;5152536;28;20052;-79
2021/07/16 01:32:42;;;;;;;34.85;19.45;;;;;;;20.63;100.00;100709.78;5149681;28;20039;-79
2021/07/16 01:35:13;;;;;;;28.90;19.23;;;;;;;20.53;100.00;100709.63;5151054;28;20026;-79
2021/07/16 01:37:44;;;;;;;33.50;19.83;;;;;;;20.53;100.00;100706.13;5148980;28;20030;-79
2021/07/16 01:40:18;;;;;;;34.10;19.58;;;;;;;20.52;100.00;100707.06;5147889;28;20053;-79
2021/07/16 01:42:52;;;;;;;32.20;20.02;;;;;;;20.44;100.00;100706.81;5149767;28;20039;-79
2021/07/16 01:45:34;;;;;;;33.80;20.02;;;;;;;20.43;100.00;100718.41;5149161;28;20485;-79
2021/07/16 01:48:07;;;;;;;30.95;18.48;;;;;;;20.33;100.00;100718.19;5150861;28;20453;-79
2021/07/16 01:50:42;;;;;;;30.05;17.30;;;;;;;20.32;100.00;100715.66;5144480;28;20434;-79
2021/07/16 01:53:14;;;;;;;23.70;15.00;;;;;;;20.29;100.00;100719.38;5148399;28;20026;-79
2021/07/16 01:55:45;;;;;;;21.92;14.90;;;;;;;20.19;100.00;100714.84;5147193;28;20026;-79
2021/07/16 01:58:16;;;;;;;23.85;13.90;;;;;;;20.35;100.00;100723.41;5147713;28;20030;-79
2021/07/16 02:00:48;;;;;;;23.20;14.25;;;;;;;20.38;100.00;100716.06;5148451;28;20545;-79
2021/07/16 02:03:19;;;;;;;24.05;14.43;;;;;;;20.39;100.00;100716.91;5146564;28;20113;-79
2021/07/16 02:05:49;;;;;;;23.20;13.75;;;;;;;20.34;100.00;100719.06;5149153;28;20485;-79
2021/07/16 02:08:22;;;;;;;23.30;14.32;;;;;;;20.36;100.00;100719.78;5151569;28;20073;-79
2021/07/16 02:10:55;;;;;;;21.65;14.35;;;;;;;20.43;100.00;100718.41;5146685;28;20094;-79
2021/07/16 02:13:25;;;;;;;21.00;13.48;;;;;;;20.38;100.00;100718.72;5148802;28;20030;-79
2021/07/16 02:15:55;;;;;;;22.05;13.80;;;;;;;20.43;100.00;100718.41;5154685;28;20433;-79
2021/07/16 02:18:26;;;;;;;28.17;15.05;;;;;;;20.28;100.00;100724.81;5148603;28;21098;-79
2021/07/16 02:20:56;;;;;;;29.48;16.02;;;;;;;20.33;100.00;100718.19;5154242;28;20038;-79
2021/07/16 02:23:29;;;;;;;27.23;16.95;;;;;;;20.45;100.00;100719.97;5150378;28;20102;-79
2021/07/16 02:25:59;;;;;;;35.30;20.17;;;;;;;20.52;100.00;100718.56;5148093;28;20569;-79
2021/07/16 02:28:31;;;;;;;38.17;20.33;;;;;;;20.47;100.00;100715.38;5147480;28;20125;-79
2021/07/16 02:31:11;;;;;;;34.20;20.83;;;;;;;20.22;100.00;100718.16;5151445;28;20030;-79
2021/07/16 02:33:41;;;;;;;34.92;19.63;;;;;;;20.28;100.00;100728.31;5148156;28;20030;-79
2021/07/16 02:36:12;;;;;;;29.30;17.40;;;;;;;20.34;100.00;100734.97;5144635;28;20503;-79
2021/07/16 02:38:42;;;;;;;30.02;18.40;;;;;;;20.37;100.00;100740.06;5145256;28;20084;-79
2021/07/16 02:41:12;;;;;;;31.83;18.05;;;;;;;20.28;100.00;100751.38;5147963;28;20033;-79
2021/07/16 02:43:43;;;;;;;26.95;17.70;;;;;;;20.41;100.00;100742.38;5146354;28;20023;-79
2021/07/16 02:46:13;;;;;;;28.77;16.77;;;;;;;20.30;100.00;100754.75;5146924;28;20030;-79
2021/07/16 02:48:44;;;;;;;26.00;15.68;;;;;;;20.21;100.00;100745.66;5148814;28;20058;-79
2021/07/16 02:51:14;;;;;;;22.40;15.73;;;;;;;20.03;100.00;100754.06;5146871;28;20031;-79
2021/07/16 02:53:44;;;;;;;20.35;15.57;;;;;;;20.08;100.00;100759.91;5145720;28;20270;-79
2021/07/16 02:56:14;;;;;;;26.30;16.08;;;;;;;20.17;100.00;100757.47;5147357;28;20054;-79
2021/07/16 02:58:45;;;;;;;24.42;16.05;;;;;;;20.14;100.00;100765.63;5147513;28;20058;-79
2021/07/16 03:01:15;;;;;;;26.87;15.67;;;;;;;20.17;100.00;100762.78;5146702;28;20138;-79
2021/07/16 03:03:45;;;;;;;25.38;15.80;;;;;;;20.07;100.00;100761.72;5145082;28;21058;-79
2021/07/16 03:06:15;;;;;;;23.15;15.30;;;;;;;20.07;100.00;100758.19;5145924;28;20034;-79
2021/07/16 03:08:46;;;;;;;25.52;15.93;;;;;;;20.16;100.00;100758.38;5147548;28;20221;-79
2021/07/16 03:11:16;;;;;;;24.25;16.13;;;;;;;20.06;100.00;100759.16;5144905;28;20037;-79
2021/07/16 03:13:46;;;;;;;26.45;16.55;;;;;;;20.18;100.00;100751.19;5146932;28;20081;-79
2021/07/16 03:16:17;;;;;;;25.20;16.40;;;;;;;20.10;100.00;100758.84;5146197;28;20469;-79
2021/07/16 03:18:47;;;;;;;23.50;15.87;;;;;;;20.12;100.00;100748.97;5148186;28;20297;-79
2021/07/16 03:21:17;;;;;;;28.37;17.30;;;;;;;20.02;100.00;100757.69;5146172;28;20357;-79
2021/07/16 03:23:47;;;;;;;26.00;16.97;;;;;;;19.97;100.00;100742.06;5146671;28;20293;-79
2021/07/16 03:26:18;;;;;;;23.92;15.25;;;;;;;20.03;100.00;100746.13;5145973;28;20280;-79
2021/07/16 03:28:48;;;;;;;28.23;16.50;;;;;;;20.02;100.00;100761.22;5152395;28;20038;-79
2021/07/16 03:31:18;;;;;;;25.42;15.98;;;;;;;20.14;100.00;100762.97;5151809;28;20339;-79
2021/07/16 03:33:49;;;;;;;24.30;14.55;;;;;;;20.08;100.00;100763.41;5151482;28;20030;-79
2021/07/16 03:36:19;;;;;;;26.08;15.52;;;;;;;20.14;100.00;100762.13;5154705;28;20030;-79
2021/07/16 03:38:52;;;;;;;25.58;15.50;;;;;;;19.99;100.00;100761.38;5153456;28;20034;-79
2021/07/16 03:41:22;;;;;;;22.55;15.23;;;;;;;20.00;100.00;100760.44;5149639;28;20119;-79
2021/07/16 03:43:52;;;;;;;26.35;15.68;;;;;;;20.03;100.00;100757.59;5148632;28;20536;-79
2021/07/16 03:46:27;;;;;;;20.55;14.43;;;;;;;19.96;100.00;100750.97;5152925;28;20073;-79
2021/07/16 03:48:58;;;;;;;27.35;15.52;;;;;;;20.00;100.00;100747.16;5153539;28;20153;-79
2021/07/16 03:51:31;;;;;;;22.02;14.30;;;;;;;19.89;100.00;100748.88;5152167;28;20652;-79
2021/07/16 03:54:01;;;;;;;22.45;14.68;;;;;;;20.03;100.00;100754.94;5151618;28;20042;-80
2021/07/16 03:56:32;;;;;;;19.23;13.68;;;;;;;19.90;100.00;100740.81;5150730;28;20053;-80
2021/07/16 03:59:02;;;;;;;24.02;13.80;;;;;;;19.90;100.00;100740.81;5152644;28;20026;-80
2021/07/16 04:01:33;;;;;;;21.25;13.40;;;;;;;19.94;100.00;100741.44;5154319;28;20059;-80
2021/07/16 04:04:03;;;;;;;23.00;13.37;;;;;;;19.94;100.00;100747.59;5149422;28;20027;-80
2021/07/16 04:06:34;;;;;;;19.30;12.25;;;;;;;19.96;100.00;100750.97;5148846;28;20623;-80
2021/07/16 04:09:21;;;;;;;18.70;11.73;;;;;;;19.90;100.00;100751.41;5151923;28;20461;-80
2021/07/16 04:11:51;;;;;;;16.95;10.77;;;;;;;19.91;100.00;100753.13;5149741;28;20030;-79
2021/07/16 04:14:21;;;;;;;17.17;10.88;;;;;;;19.98;100.00;100761.50;5149735;28;20362;-80
2021/07/16 04:16:52;;;;;;;19.67;12.30;;;;;;;19.89;100.00;100760.34;5150420;28;20083;-79
2021/07/16 04:19:22;;;;;;;20.10;12.27;;;;;;;19.80;100.00;100755.66;5151784;28;20057;-79
2021/07/16 04:21:52;;;;;;;16.47;11.50;;;;;;;19.91;100.00;100760.22;5151153;28;20278;-80
2021/07/16 04:24:22;;;;;;;18.40;12.33;;;;;;;19.83;100.00;100765.22;5151487;28;20373;-79
2021/07/16 04:26:53;;;;;;;18.50;11.50;;;;;;;19.87;100.00;100766.69;5151989;28;20269;-79
2021/07/16 04:29:23;;;;;;;17.77;11.25;;;;;;;19.86;100.00;100768.53;5149626;28;20030;-79
2021/07/16 04:31:54;;;;;;;19.80;11.20;;;;;;;19.82;100.00;100766.19;5149965;28;20034;-80
2021/07/16 04:34:25;;;;;;;15.48;10.45;;;;;;;19.90;100.00;100764.69;5151311;28;20415;-79
2021/07/16 04:36:56;;;;;;;19.48;10.70;;;;;;;19.67;100.00;100765.47;5151186;28;20062;-79
2021/07/16 04:39:27;;;;;;;17.70;10.73;;;;;;;19.91;100.00;100769.03;5151954;28;20026;-80
2021/07/16 04:41:57;;;;;;;19.38;10.98;;;;;;;19.85;100.00;100758.88;5149238;28;20035;-79
2021/07/16 04:44:30;;;;;;;20.15;11.35;;;;;;;19.98;100.00;100780.91;5149691;28;20054;-79
2021/07/16 04:47:01;;;;;;;19.75;11.32;;;;;;;20.07;100.00;100777.63;5145591;28;20030;-79
2021/07/16 04:49:31;;;;;;;19.52;11.45;;;;;;;19.85;100.00;100796.00;5151617;28;20025;-79
2021/07/16 04:52:01;;;;;;;24.50;12.40;;;;;;;19.94;100.00;100795.34;5149464;28;20073;-80
2021/07/16 04:54:32;;;;;;;23.00;12.93;;;;;;;19.83;100.00;100791.75;5150115;28;20077;-79
2021/07/16 04:57:02;;;;;;;22.00;12.90;;;;;;;19.67;100.00;100794.63;5146052;28;20054;-79
2021/07/16 04:59:33;;;;;;;25.90;13.23;;;;;;;19.80;100.00;100794.63;5144059;28;20109;-80
2021/07/16 05:02:05;;;;;;;24.43;13.40;;;;;;;19.87;100.00;100799.41;5147979;28;20030;-80
2021/07/16 05:04:35;;;;;;;25.95;13.77;;;;;;;19.84;100.00;100804.06;5143824;28;20366;-79
2021/07/16 05:07:05;;;;;;;24.75;13.15;;;;;;;19.89;100.00;100802.78;5142773;28;20485;-79
2021/07/16 05:09:36;;;;;;;21.27;12.30;;;;;;;19.97;100.00;100800.44;5144036;28;20018;-79
2021/07/16 05:12:07;;;;;;;24.23;12.02;;;;;;;19.96;100.00;100801.38;5144418;28;20058;-79
2021/07/16 05:14:37;;;;;;;20.10;11.32;;;;;;;19.90;100.00;100807.13;5143360;28;20026;-79
2021/07/16 05:17:07;;;;;;;21.53;12.13;;;;;;;19.92;100.00;100807.03;5144681;28;20035;-79
2021/07/16 05:19:38;;;;;;;22.30;11.85;;;;;;;19.93;100.00;100814.88;5143640;28;21078;-79
2021/07/16 05:22:08;;;;;;;26.80;11.85;;;;;;;19.95;100.00;100814.78;5150686;28;20527;-79
2021/07/16 05:24:38;;;;;;;25.88;12.75;;;;;;;19.89;100.00;100812.53;5152253;28;20114;-79
2021/07/16 05:27:09;;;;;;;21.20;12.38;;;;;;;19.89;100.00;100809.88;5149971;28;20473;-79
2021/07/16 05:29:39;;;;;;;20.85;12.40;;;;;;;19.77;100.00;100829.34;5150891;28;20146;-79
2021/07/16 05:32:09;;;;;;;29.90;13.63;;;;;;;19.68;100.00;100824.66;5149059;28;20027;-80
2021/07/16 05:34:40;;;;;;;24.98;12.60;;;;;;;19.67;100.00;100823.81;5152793;28;20054;-79
2021/07/16 05:37:10;;;;;;;26.67;13.57;;;;;;;19.71;100.00;100817.34;5154951;28;20042;-79
2021/07/16 05:39:40;;;;;;;26.95;13.88;;;;;;;19.58;100.00;100819.13;5152341;28;20030;-79
2021/07/16 05:42:11;;;;;;;28.50;14.05;;;;;;;19.49;100.00;100821.56;5146236;28;20118;-79
2021/07/16 05:44:41;;;;;;;35.92;15.02;;;;;;;19.47;100.00;100821.66;5147365;28;20332;-79
2021/07/16 05:47:11;;;;;;;34.72;15.32;;;;;;;19.34;100.00;100828.75;5145911;28;20046;-79
2021/07/16 05:49:42;;;;;;;32.95;14.52;;;;;;;19.47;100.00;100831.44;5146590;28;20031;-80
2021/07/16 05:52:12;;;;;;;32.90;14.35;;;;;;;19.37;100.00;100833.84;5144983;28;20101;-79
2021/07/16 05:54:42;;;;;;;33.67;15.23;;;;;;;19.43;100.00;100841.38;5146230;28;20033;-79
2021/07/16 05:57:12;;;;;;;37.05;15.15;;;;;;;19.34;100.00;100844.66;5145013;28;20285;-79
2021/07/16 05:59:43;;;;;;;39.67;15.47;;;;;;;19.55;100.00;100845.88;5149045;28;20150;-80
2021/07/16 06:02:13;;;;;;;38.20;15.85;;;;;;;19.39;100.00;100854.94;5146651;28;20278;-79
2021/07/16 06:04:43;;;;;;;36.15;16.05;;;;;;;19.39;100.00;100849.63;5147157;28;20034;-80
2021/07/16 06:07:14;;;;;;;46.97;16.45;;;;;;;19.52;100.00;100854.03;5145951;28;20022;-80
2021/07/16 06:09:45;;;;;;;42.58;15.88;;;;;;;19.46;100.00;100845.63;5147555;28;20077;-80
2021/07/16 06:12:16;;;;;;;40.67;15.68;;;;;;;19.46;100.00;100846.47;5148117;28;20054;-80
2021/07/16 06:14:46;;;;;;;44.83;17.15;;;;;;;19.32;100.00;100849.22;5146417;28;20488;-80
2021/07/16 06:17:17;;;;;;;36.95;15.10;;;;;;;19.55;100.00;100851.16;5146406;28;20023;-80
2021/07/16 06:19:47;;;;;;;37.93;16.03;;;;;;;19.50;100.00;100853.28;5145651;28;20130;-80
2021/07/16 06:22:17;;;;;;;46.05;15.57;;;;;;;19.51;100.00;100865.59;5145674;28;20282;-79
2021/07/16 06:24:48;;;;;;;41.65;15.57;;;;;;;19.72;100.00;100869.44;5144018;28;20125;-80
2021/07/16 06:27:18;;;;;;;41.13;15.43;;;;;;;19.55;100.00;100867.06;5144246;28;20066;-80
2021/07/16 06:29:48;;;;;;;37.85;15.43;;;;;;;19.67;100.00;100862.75;5146024;28;20412;-80
2021/07/16 06:32:19;;;;;;;42.53;15.15;;;;;;;19.73;100.00;100859.66;5145789;28;20019;-79
2021/07/16 06:34:49;;;;;;;36.83;15.15;;;;;;;19.74;100.00;100872.81;5145541;28;20214;-80
2021/07/16 06:37:20;;;;;;;46.22;15.40;;;;;;;19.78;100.00;100863.69;5145910;28;20034;-80
2021/07/16 06:39:50;;;;;;;35.35;14.73;;;;;;;19.72;100.00;100865.91;5144965;28;20109;-80
2021/07/16 06:42:20;;;;;;;40.20;14.95;;;;;;;19.88;100.00;100869.22;5144701;28;20029;-80
2021/07/16 06:44:50;;;;;;;42.60;14.77;;;;;;;19.92;100.00;100871.56;5143225;28;20042;-80
2021/07/16 06:47:21;;;;;;;34.42;14.25;;;;;;;19.96;100.00;100888.97;5144265;28;20338;-80
2021/07/16 06:49:51;;;;;;;38.10;14.50;;;;;;;19.83;100.00;100881.97;5145601;28;20054;-80
2021/07/16 06:52:21;;;;;;;35.60;14.40;;;;;;;19.71;100.00;100893.41;5144855;28;20030;-80
2021/07/16 06:54:52;;;;;;;37.67;14.75;;;;;;;19.54;100.00;100897.19;5144987;28;20034;-80
2021/07/16 06:57:22;;;;;;;33.35;13.30;;;;;;;19.68;100.00;100894.47;5147039;28;20031;-80
2021/07/16 06:59:53;;;;;;;31.02;14.38;;;;;;;19.63;100.00;100907.19;5146587;28;20027;-80
2021/07/16 07:02:23;;;;;;;37.10;14.90;;;;;;;19.42;100.00;100905.97;5142340;28;20125;-80
2021/07/16 07:04:53;;;;;;;32.88;14.32;;;;;;;19.42;100.00;100908.63;5145346;28;20083;-80
2021/07/16 07:07:24;;;;;;;23.10;12.38;;;;;;;19.49;100.00;100915.22;5150512;28;20473;-80
2021/07/16 07:09:54;;;;;;;31.80;13.27;;;;;;;19.74;100.00;100915.28;5146385;28;20058;-80
2021/07/16 07:12:24;;;;;;;28.20;12.48;;;;;;;19.86;100.00;100919.75;5145190;28;20369;-80
2021/07/16 07:14:54;;;;;;;31.42;13.93;;;;;;;19.86;100.00;100925.06;5145092;28;20034;-80
2021/07/16 07:17:25;;;;;;;33.63;13.63;;;;;;;19.80;100.00;100927.28;5145213;28;20033;-80
2021/07/16 07:19:55;;;;;;;26.13;12.88;;;;;;;19.99;100.00;100928.56;5144990;28;20190;-80
2021/07/16 07:22:25;;;;;;;28.73;13.33;;;;;;;20.10;100.00;100934.00;5145228;28;20073;-80
2021/07/16 07:24:56;;;;;;;30.37;13.93;;;;;;;19.95;100.00;100927.06;5144588;28;20345;-80
2021/07/16 07:27:26;;;;;;;33.03;14.38;;;;;;;19.93;100.00;100926.31;5147057;28;20291;-80
2021/07/16 07:29:57;;;;;;;32.45;13.65;;;;;;;19.82;100.00;100917.41;5146469;28;20148;-80
2021/07/16 07:32:27;;;;;;;32.73;13.80;;;;;;;19.90;100.00;100923.88;5145801;28;20035;-80
2021/07/16 07:34:57;;;;;;;31.65;14.60;;;;;;;19.98;100.00;100923.38;5145645;28;20339;-80
2021/07/16 07:37:28;;;;;;;29.05;13.68;;;;;;;19.88;100.00;100922.28;5144947;28;20125;-80
2021/07/16 07:39:58;;;;;;;37.03;14.75;;;;;;;19.95;100.00;100929.72;5145227;28;20023;-80
2021/07/16 07:42:29;;;;;;;33.15;14.80;;;;;;;19.88;100.00;100930.25;5144989;28;20370;-80
2021/07/16 07:44:59;;;;;;;30.10;13.18;;;;;;;19.94;100.00;100935.97;5145745;28;20470;-80
2021/07/16 07:47:32;;;;;;;31.02;13.75;;;;;;;20.07;100.00;100939.53;5144506;28;20029;-80
2021/07/16 07:50:07;;;;;;;35.95;14.40;;;;;;;19.78;100.00;100940.63;5145670;28;20033;-80
2021/07/16 07:52:37;;;;;;;39.30;14.45;;;;;;;19.89;100.00;100940.75;5144785;28;20034;-80
2021/07/16 07:55:09;;;;;;;37.35;14.48;;;;;;;19.75;100.00;100947.97;5142749;28;20018;-80
2021/07/16 07:57:39;;;;;;;46.40;15.75;;;;;;;19.85;100.00;100944.59;5144862;28;20378;-79
2021/07/16 08:00:15;;;;;;;39.80;14.95;;;;;;;19.81;100.00;100943.06;5144451;28;20042;-79
2021/07/16 08:02:46;;;;;;;40.58;15.38;;;;;;;19.92;100.00;100935.25;5146576;28;20086;-80
2021/07/16 08:05:17;;;;;;;46.35;15.40;;;;;;;19.86;100.00;100945.41;5145453;28;20131;-80
2021/07/16 08:07:48;;;;;;;40.65;14.70;;;;;;;19.73;100.00;100950.72;5143922;28;20134;-79
2021/07/16 08:10:20;;;;;;;36.25;14.90;;;;;;;19.72;100.00;100943.72;5144297;28;20117;-79
2021/07/16 08:12:50;;;;;;;38.35;16.00;;;;;;;19.93;100.00;100944.91;5145150;28;20547;-79
2021/07/16 08:15:21;;;;;;;40.20;16.25;;;;;;;20.06;100.00;100947.59;5144295;28;20027;-79
2021/07/16 08:17:52;;;;;;;39.40;16.45;;;;;;;20.14;100.00;100956.72;5143654;28;20069;-79
2021/07/16 08:20:22;;;;;;;36.35;14.52;;;;;;;20.19;100.00;100965.25;5143188;28;20022;-79
2021/07/16 08:22:52;;;;;;;33.03;14.60;;;;;;;20.28;100.00;100964.59;5143127;28;20031;-79
2021/07/16 08:25:23;;;;;;;32.42;14.07;;;;;;;20.66;100.00;100951.31;5143130;28;20023;-79
2021/07/16 08:27:53;;;;;;;29.05;13.30;;;;;;;20.84;100.00;100961.50;5144662;28;20504;-79
2021/07/16 08:30:23;;;;;;;31.45;12.55;;;;;;;20.93;100.00;100963.50;5145186;28;20076;-79
2021/07/16 08:32:54;;;;;;;31.70;13.23;;;;;;;20.79;100.00;100955.63;5144401;28;20049;-80
2021/07/16 08:35:24;;;;;;;37.88;13.65;;;;;;;20.75;100.00;100957.66;5144418;28;20037;-79
2021/07/16 08:37:54;;;;;;;31.85;13.38;;;;;;;20.78;100.00;100969.88;5144983;28;20041;-80
2021/07/16 08:40:25;;;;;;;32.03;13.50;;;;;;;20.49;100.00;100976.38;5143033;28;20031;-79
2021/07/16 08:42:57;;;;;;;34.88;13.52;;;;;;;20.61;100.00;100980.00;5143112;28;20046;-79
2021/07/16 08:45:27;;;;;;;35.38;12.38;;;;;;;20.58;100.00;100983.72;5142766;28;20029;-79
2021/07/16 08:47:58;;;;;;;36.13;12.57;;;;;;;20.68;100.00;100979.44;5144150;28;20117;-80
2021/07/16 08:50:30;;;;;;;30.65;11.45;;;;;;;20.67;100.00;100981.25;5144896;28;20080;-79
2021/07/16 08:53:02;;;;;;;33.75;12.05;;;;;;;20.86;100.00;100983.50;5143501;28;20077;-79
2021/07/16 08:55:35;;;;;;;34.67;12.38;;;;;;;20.82;100.00;100976.66;5144500;28;20452;-79
2021/07/16 08:58:06;;;;;;;34.60;14.52;;;;;;;20.79;100.00;100982.19;5142885;28;20054;-79
2021/07/16 09:00:37;;;;;;;32.33;13.70;;;;;;;20.73;100.00;100982.66;5145291;28;20073;-80
2021/07/16 09:03:10;;;;;;;35.28;14.02;;;;;;;20.73;100.00;100990.63;5142922;28;20019;-79
2021/07/16 09:05:43;;;;;;;37.78;14.63;;;;;;;20.48;100.00;100990.63;5144622;28;20054;-79
2021/07/16 09:08:22;;;;;;;33.08;14.57;;;;;;;20.68;100.00;100992.72;5143429;28;20477;-80
2021/07/16 09:10:58;;;;;;;33.53;14.18;;;;;;;20.75;100.00;100986.03;5146375;28;20034;-79
2021/07/16 09:13:31;;;;;;;32.47;13.88;;;;;;;20.87;100.00;100990.53;5147360;28;20035;-79
2021/07/16 09:16:02;;;;;;;38.33;13.82;;;;;;;20.90;100.00;100985.81;5148201;28;20061;-79
2021/07/16 09:18:32;;;;;;;36.10;13.68;;;;;;;20.90;100.00;100985.81;5148529;28;20516;-79
2021/07/16 09:21:03;;;;;;;35.60;14.20;;;;;;;20.97;100.00;100976.47;5146218;28;20054;-79
2021/07/16 09:23:36;;;;;;;31.03;12.70;;;;;;;21.22;100.00;100980.88;5146755;28;20026;-79
2021/07/16 09:26:24;;;;;;;33.70;13.38;;;;;;;21.27;100.00;100984.03;5147842;28;20290;-80
2021/07/16 09:28:56;;;;;;;38.88;14.50;;;;;;;21.17;100.00;100982.97;5146509;28;20027;-79
2021/07/16 09:31:28;;;;;;;35.50;14.85;;;;;;;21.32;100.00;100987.19;5148019;28;20473;-79
2021/07/16 09:34:03;;;;;;;37.25;14.20;;;;;;;21.33;100.00;100994.22;5147627;28;20018;-79
2021/07/16 09:36:40;;;;;;;35.38;14.38;;;;;;;21.12;100.00;100990.44;5148190;28;20209;-79
2021/07/16 09:39:13;;;;;;;42.35;14.73;;;;;;;21.38;100.00;101000.06;5146644;28;20082;-79
2021/07/16 09:41:54;;;;;;;37.35;16.20;;;;;;;21.40;100.00;100995.47;5147614;28;20023;-79
2021/07/16 09:44:30;;;;;;;37.10;15.95;;;;;;;21.32;100.00;100992.50;5146713;28;20038;-79
2021/07/16 09:47:07;;;;;;;41.50;16.55;;;;;;;21.16;100.00;100986.59;5148677;28;20105;-79
2021/07/16 09:49:37;;;;;;;36.25;14.73;;;;;;;21.37;100.00;100980.56;5146266;28;20042;-79
2021/07/16 09:52:13;;;;;;;42.60;15.13;;;;;;;21.63;99.09;100979.53;5146590;28;20031;-79
2021/07/16 09:55:14;;;;;;;38.28;16.13;;;;;;;21.62;99.06;100980.50;5146917;28;20030;-79
2021/07/16 09:57:49;;;;;;;43.72;18.05;;;;;;;21.38;98.89;100978.78;5143741;28;20130;-80
2021/07/16 10:00:23;;;;;;;44.08;17.40;;;;;;;21.58;99.15;100988.78;5148005;28;20052;-79
2021/07/16 10:02:58;;;;;;;44.67;19.58;;;;;;;21.60;99.19;100985.03;5147073;28;20031;-79
2021/07/16 10:05:29;;;;;;;49.22;20.77;;;;;;;21.64;100.00;100983.91;5145926;28;20034;-79
2021/07/16 10:08:00;;;;;;;42.13;20.55;;;;;;;21.73;99.92;100993.84;5145721;28;20061;-79
2021/07/16 10:10:34;;;;;;;51.08;22.45;;;;;;;21.92;98.27;100994.16;5147015;28;20029;-79
2021/07/16 10:13:07;;;;;;;46.00;22.65;;;;;;;21.93;97.92;100995.03;5145587;28;20027;-79
2021/07/16 10:15:38;;;;;;;51.72;23.73;;;;;;;21.75;97.96;100991.09;5142161;28;20027;-79
2021/07/16 10:18:08;;;;;;;51.40;24.95;;;;;;;21.77;98.17;101002.47;5147515;28;20560;-80
2021/07/16 10:20:39;;;;;;;48.67;23.00;;;;;;;22.11;97.19;101001.63;5146591;28;20043;-79
2021/07/16 10:23:12;;;;;;;43.15;21.50;;;;;;;22.01;95.17;100998.81;5147539;28;20035;-79
2021/07/16 10:25:46;;;;;;;46.90;19.55;;;;;;;22.39;95.79;100994.06;5145265;28;20093;-79
2021/07/16 10:28:36;;;;;;;45.33;18.80;;;;;;;22.48;96.14;101004.03;5145983;28;20473;-78
2021/07/16 10:31:28;;;;;;;38.17;15.43;;;;;;;22.29;94.96;101003.69;5146584;28;20030;-79
2021/07/16 10:34:11;;;;;;;39.90;15.05;;;;;;;22.07;96.23;101008.97;5145324;28;20027;-79
2021/07/16 10:36:46;;;;;;;42.03;15.48;;;;;;;22.13;95.66;101013.00;5142367;28;20037;-79
2021/07/16 10:39:22;;;;;;;33.53;13.95;;;;;;;22.25;95.14;101006.75;5145808;28;20066;-80
2021/07/16 10:41:52;;;;;;;39.75;14.18;;;;;;;22.31;95.84;101011.59;5145186;28;20045;-80
2021/07/16 10:45:04;;;;;;;45.00;15.65;;;;;;;22.43;95.43;101011.50;5144872;28;20039;-79
2021/07/16 10:47:38;;;;;;;45.03;17.63;;;;;;;22.38;95.46;101015.47;5123446;28;20070;-79
2021/07/16 10:50:11;;;;;;;43.92;18.77;;;;;;;22.22;94.82;101018.47;5115910;29;20156;-79
2021/07/16 10:52:44;;;;;;;44.40;19.75;;;;;;;22.34;95.30;101016.66;5132772;28;20043;-79
2021/07/16 10:55:39;;;;;;;49.30;23.05;;;;;;;22.57;95.04;101021.94;5148717;28;20030;-80
2021/07/16 10:58:18;;;;;;;51.40;26.05;;;;;;;22.58;93.82;101020.97;5141863;28;20031;-79
2021/07/16 11:00:51;;;;;;;52.30;26.33;;;;;;;22.67;93.50;101022.09;5144429;28;20057;-80
2021/07/16 11:03:35;;;;;;;46.15;23.35;;;;;;;22.56;93.64;101030.91;5147901;28;20030;-79
2021/07/16 11:06:07;;;;;;;44.67;20.60;;;;;;;22.39;93.54;101035.88;5152846;28;20046;-80
2021/07/16 11:08:37;;;;;;;44.13;19.65;;;;;;;22.68;94.97;101032.63;5146994;28;20035;-79
2021/07/16 11:11:15;;;;;;;39.70;17.58;;;;;;;22.89;92.67;101034.47;5144662;28;20037;-79
2021/07/16 11:13:56;;;;;;;37.13;15.38;;;;;;;22.73;92.23;101037.63;5149640;28;20022;-79
2021/07/16 11:16:31;;;;;;;47.88;16.42;;;;;;;22.20;94.32;101043.50;5146431;28;20090;-79
2021/07/16 11:19:03;;;;;;;35.78;15.45;;;;;;;22.28;95.09;101047.28;5145202;28;20033;-79
2021/07/16 11:21:39;;;;;;;48.55;16.88;;;;;;;22.49;93.26;101047.50;5145566;28;20030;-79
2021/07/16 11:24:19;;;;;;;41.40;16.95;;;;;;;22.40;94.13;101048.22;5141700;28;20046;-79